Time;durP1;ratioP1;P1;durP2;ratioP2;P2;SDS_P1;SDS_P2;PMS_P1;PMS_P2;Temp;Humidity;BMP_temperature;BMP_pressure;BME280_temperature;BME280_humidity;BME280_pressure;Samples;Min_cycle;Max_cycle;Signal;HPM_P1;HPM_P2
2022/07/11 00:02:04;;;;;;;3.37;2.62;;;23.60;87.80;;;;;;1876023;76;21029;-60
2022/07/11 00:04:34;;;;;;;4.08;2.70;;;23.60;87.80;;;;;;1875992;76;21034;-60
2022/07/11 00:07:04;;;;;;;3.37;3.05;;;23.70;87.80;;;;;;1876042;76;21104;-60
2022/07/11 00:09:34;;;;;;;3.83;2.75;;;23.80;87.80;;;;;;1875943;76;21070;-61
2022/07/11 00:12:03;;;;;;;6.53;2.83;;;23.80;87.80;;;;;;1876048;76;21075;-61
2022/07/11 00:14:33;;;;;;;5.83;2.45;;;23.90;87.80;;;;;;1875999;76;21010;-61
2022/07/11 00:17:02;;;;;;;4.80;2.70;;;23.90;87.40;;;;;;1876043;76;21026;-61
2022/07/11 00:19:31;;;;;;;3.80;2.70;;;23.90;87.30;;;;;;1876062;76;21021;-61
2022/07/11 00:22:00;;;;;;;3.27;2.00;;;23.90;87.70;;;;;;1875972;76;21428;-61
2022/07/11 00:24:30;;;;;;;5.00;2.83;;;23.90;87.60;;;;;;1875979;76;21101;-61
2022/07/11 00:26:59;;;;;;;2.90;2.60;;;23.90;87.40;;;;;;1876066;76;21313;-61
2022/07/11 00:29:29;;;;;;;6.95;3.52;;;23.90;87.50;;;;;;1875849;76;22263;-61
2022/07/11 00:31:59;;;;;;;4.22;2.98;;;23.90;87.70;;;;;;1875952;76;21046;-61
2022/07/11 00:34:28;;;;;;;4.17;2.75;;;23.90;87.80;;;;;;1875859;76;21084;-61
2022/07/11 00:36:57;;;;;;;3.35;2.60;;;24.00;87.90;;;;;;1875953;76;21042;-61
2022/07/11 00:39:26;;;;;;;3.72;2.62;;;24.00;87.90;;;;;;1875858;75;21037;-61
2022/07/11 00:41:55;;;;;;;3.95;2.30;;;24.00;88.00;;;;;;1875891;76;21057;-61
2022/07/11 00:44:24;;;;;;;3.90;2.37;;;24.00;87.80;;;;;;1875951;76;21018;-61
2022/07/11 00:46:54;;;;;;;6.62;3.20;;;24.00;87.60;;;;;;1875931;76;21107;-61
2022/07/11 00:49:24;;;;;;;3.72;2.80;;;23.90;87.80;;;;;;1875941;76;21050;-62
2022/07/11 00:51:53;;;;;;;3.75;2.72;;;23.90;88.10;;;;;;1875763;76;21038;-62
2022/07/11 00:54:24;;;;;;;5.45;3.17;;;23.90;88.40;;;;;;1875994;76;21096;-61
2022/07/11 00:56:53;;;;;;;3.92;2.72;;;23.90;88.30;;;;;;1875962;76;21061;-61
2022/07/11 00:59:22;;;;;;;4.28;3.05;;;23.90;88.30;;;;;;1876028;76;21037;-61
2022/07/11 01:01:52;;;;;;;7.40;3.58;;;23.90;88.40;;;;;;1876023;76;21104;-61
2022/07/11 01:04:22;;;;;;;5.03;3.35;;;24.00;88.50;;;;;;1875929;76;21093;-61
2022/07/11 01:06:51;;;;;;;5.03;2.90;;;24.00;88.40;;;;;;1875970;76;21037;-61
2022/07/11 01:09:20;;;;;;;6.50;3.27;;;24.00;88.40;;;;;;1875961;76;21479;-61
2022/07/11 01:11:49;;;;;;;2.98;2.62;;;24.10;88.40;;;;;;1875915;76;21033;-61
2022/07/11 01:14:18;;;;;;;5.08;2.80;;;24.10;88.30;;;;;;1875940;76;21025;-61
2022/07/11 01:16:47;;;;;;;4.33;3.55;;;24.10;88.10;;;;;;1875918;76;21466;-61
2022/07/11 01:19:16;;;;;;;4.10;3.47;;;24.10;88.20;;;;;;1875851;76;21038;-61
2022/07/11 01:21:48;;;;;;;4.03;3.52;;;24.10;88.50;;;;;;1875889;76;21480;-61
2022/07/11 01:24:19;;;;;;;4.20;3.80;;;24.10;88.50;;;;;;1875993;76;21124;-61
2022/07/11 01:26:49;;;;;;;4.67;3.70;;;24.10;88.30;;;;;;1875913;76;21119;-61
2022/07/11 01:29:18;;;;;;;7.67;3.95;;;24.10;88.20;;;;;;1875876;76;21511;-61
2022/07/11 01:31:47;;;;;;;5.30;3.98;;;24.10;88.20;;;;;;1875832;76;21033;-61
2022/07/11 01:34:16;;;;;;;5.33;3.55;;;24.10;88.20;;;;;;1875808;75;21053;-61
2022/07/11 01:36:46;;;;;;;4.60;3.60;;;24.10;88.10;;;;;;1875972;76;21119;-61
2022/07/11 01:39:15;;;;;;;6.20;3.62;;;24.10;88.10;;;;;;1876019;76;21111;-61
2022/07/11 01:41:44;;;;;;;6.65;3.85;;;24.10;87.90;;;;;;1875943;76;21074;-61
2022/07/11 01:44:14;;;;;;;4.20;3.80;;;24.10;87.50;;;;;;1875892;76;21119;-61
2022/07/11 01:46:43;;;;;;;8.68;4.60;;;24.00;87.60;;;;;;1875970;76;21038;-61
2022/07/11 01:49:12;;;;;;;5.50;4.78;;;23.90;87.80;;;;;;1876006;76;21030;-61
2022/07/11 01:51:43;;;;;;;7.60;5.05;;;23.80;88.20;;;;;;1875911;76;21033;-61
2022/07/11 01:54:13;;;;;;;5.58;5.00;;;23.70;88.50;;;;;;1875979;76;21159;-61
2022/07/11 01:56:42;;;;;;;7.60;5.55;;;23.70;88.80;;;;;;1875924;76;21038;-61
2022/07/11 01:59:11;;;;;;;7.60;5.37;;;23.70;89.00;;;;;;1875994;76;21034;-61
2022/07/11 02:01:41;;;;;;;9.25;5.60;;;23.70;89.20;;;;;;1876000;76;21504;-61
2022/07/11 02:04:10;;;;;;;8.98;5.30;;;23.60;89.30;;;;;;1875875;76;21077;-61
2022/07/11 02:06:39;;;;;;;8.88;5.62;;;23.60;89.60;;;;;;1875883;76;21049;-61
2022/07/11 02:09:09;;;;;;;9.70;5.37;;;23.60;89.70;;;;;;1875945;76;21091;-61
2022/07/11 02:11:39;;;;;;;5.92;5.35;;;23.50;89.70;;;;;;1876086;76;21452;-61
2022/07/11 02:14:08;;;;;;;6.08;5.47;;;23.50;89.70;;;;;;1876073;76;21492;-61
2022/07/11 02:16:38;;;;;;;7.25;5.83;;;23.50;89.80;;;;;;1875868;76;21091;-61
2022/07/11 02:19:08;;;;;;;7.15;5.85;;;23.60;89.90;;;;;;1875978;76;21044;-61
2022/07/11 02:21:37;;;;;;;7.00;5.62;;;23.60;89.90;;;;;;1875979;76;21022;-61
2022/07/11 02:24:06;;;;;;;8.73;5.80;;;23.70;89.90;;;;;;1876083;76;21014;-61
2022/07/11 02:26:36;;;;;;;13.10;6.45;;;23.60;89.90;;;;;;1875967;76;21037;-61
2022/07/11 02:29:05;;;;;;;10.58;5.80;;;23.60;90.10;;;;;;1876120;76;20994;-60
2022/07/11 02:31:35;;;;;;;6.90;5.83;;;23.70;90.10;;;;;;1876034;76;21077;-61
2022/07/11 02:34:04;;;;;;;7.17;6.00;;;23.70;90.20;;;;;;1875984;76;21057;-61
2022/07/11 02:36:34;;;;;;;6.62;6.00;;;23.70;90.20;;;;;;1875896;76;21010;-61
2022/07/11 02:39:03;;;;;;;7.67;5.53;;;23.80;90.20;;;;;;1875973;76;21095;-61
2022/07/11 02:41:32;;;;;;;9.23;6.58;;;23.90;90.20;;;;;;1875805;76;21116;-60
2022/07/11 02:44:02;;;;;;;11.55;6.60;;;23.90;90.10;;;;;;1875801;76;21077;-60
2022/07/11 02:46:32;;;;;;;6.53;5.33;;;23.90;90.00;;;;;;1875762;76;21104;-60
2022/07/11 02:49:01;;;;;;;7.45;5.70;;;24.00;90.00;;;;;;1875873;76;21085;-60
2022/07/11 02:51:30;;;;;;;6.10;4.85;;;24.00;89.90;;;;;;1875942;76;21073;-60
2022/07/11 02:54:00;;;;;;;6.80;5.22;;;24.10;89.90;;;;;;1875924;76;21033;-60
2022/07/11 02:56:29;;;;;;;7.00;5.10;;;24.10;89.90;;;;;;1875980;76;21035;-60
2022/07/11 02:58:58;;;;;;;7.75;5.60;;;24.10;90.00;;;;;;1875984;76;21108;-60
2022/07/11 03:01:28;;;;;;;7.47;4.62;;;24.20;90.00;;;;;;1875846;76;21033;-61
2022/07/11 03:03:57;;;;;;;11.78;6.00;;;24.20;89.90;;;;;;1875966;76;21037;-61
2022/07/11 03:06:27;;;;;;;10.30;5.58;;;24.30;89.90;;;;;;1875795;76;21186;-61
2022/07/11 03:08:56;;;;;;;7.33;5.58;;;24.30;89.80;;;;;;1875852;76;21079;-61
2022/07/11 03:11:25;;;;;;;5.90;5.30;;;24.30;89.70;;;;;;1875910;76;21042;-60
2022/07/11 03:13:55;;;;;;;7.15;5.67;;;24.30;89.70;;;;;;1875915;75;21029;-61
2022/07/11 03:16:24;;;;;;;16.02;7.55;;;24.30;89.80;;;;;;1875834;76;21101;-61
2022/07/11 03:18:53;;;;;;;8.98;5.60;;;24.30;89.90;;;;;;1875845;76;21100;-61
2022/07/11 03:21:23;;;;;;;8.85;5.25;;;24.40;90.00;;;;;;1875797;76;21014;-61
2022/07/11 03:23:53;;;;;;;10.08;5.65;;;24.40;90.00;;;;;;1875987;76;21102;-62
2022/07/11 03:26:22;;;;;;;10.15;6.30;;;24.30;90.00;;;;;;1875779;76;21046;-61
2022/07/11 03:28:51;;;;;;;7.53;6.30;;;24.40;90.00;;;;;;1875944;76;21077;-61
2022/07/11 03:31:21;;;;;;;9.40;6.50;;;24.40;90.10;;;;;;1875868;76;21107;-62
2022/07/11 03:33:50;;;;;;;7.92;7.08;;;24.40;90.20;;;;;;1875876;75;21037;-62
2022/07/11 03:36:20;;;;;;;12.43;7.35;;;24.50;90.20;;;;;;1875822;76;21006;-61
2022/07/11 03:38:49;;;;;;;8.63;6.22;;;24.60;90.20;;;;;;1875886;76;21526;-61
2022/07/11 03:41:18;;;;;;;10.45;6.17;;;24.70;90.10;;;;;;1875917;76;21002;-61
2022/07/11 03:43:48;;;;;;;7.37;6.78;;;24.80;90.00;;;;;;1875795;76;21539;-61
2022/07/11 03:46:17;;;;;;;13.98;6.12;;;24.80;89.80;;;;;;1875860;76;21038;-62
2022/07/11 03:48:46;;;;;;;9.83;6.22;;;24.90;89.50;;;;;;1875924;76;21100;-61
2022/07/11 03:51:16;;;;;;;7.67;5.70;;;25.00;89.30;;;;;;1875725;76;21092;-62
2022/07/11 03:53:46;;;;;;;29.92;7.20;;;25.10;89.20;;;;;;1875767;75;21045;-61
2022/07/11 03:56:18;;;;;;;7.05;5.40;;;25.10;88.90;;;;;;1875765;76;21016;-61
2022/07/11 03:58:46;;;;;;;6.60;5.97;;;25.20;88.60;;;;;;1875943;76;21115;-61
2022/07/11 04:01:16;;;;;;;9.25;5.92;;;25.20;88.40;;;;;;1875821;76;21076;-61
2022/07/11 04:03:45;;;;;;;11.10;6.83;;;25.30;88.30;;;;;;1875832;76;21031;-61
2022/07/11 04:06:16;;;;;;;10.20;6.35;;;25.40;88.10;;;;;;1875735;76;21093;-61
2022/07/11 04:08:45;;;;;;;18.30;6.33;;;25.40;88.10;;;;;;1875768;76;21033;-61
2022/07/11 04:11:14;;;;;;;10.72;6.45;;;25.50;88.10;;;;;;1875682;76;21132;-61
2022/07/11 04:13:44;;;;;;;9.93;6.55;;;25.60;87.60;;;;;;1875745;76;21104;-61
2022/07/11 04:16:13;;;;;;;11.05;6.50;;;25.70;87.00;;;;;;1875739;76;21025;-61
2022/07/11 04:18:42;;;;;;;13.03;5.70;;;25.70;86.60;;;;;;1875820;76;21097;-61
2022/07/11 04:21:11;;;;;;;14.58;5.95;;;25.70;86.40;;;;;;1875830;76;21084;-61
2022/07/11 04:23:41;;;;;;;11.95;6.00;;;25.70;86.00;;;;;;1875979;75;21151;-61
2022/07/11 04:26:10;;;;;;;19.27;7.28;;;25.70;85.90;;;;;;1875931;76;21420;-61
2022/07/11 04:28:39;;;;;;;10.80;5.65;;;25.70;85.40;;;;;;1875856;76;21127;-61
2022/07/11 04:31:10;;;;;;;8.00;5.70;;;25.80;85.00;;;;;;1875697;76;21034;-61
2022/07/11 04:33:39;;;;;;;10.32;5.28;;;25.80;84.70;;;;;;1875891;76;21127;-61
2022/07/11 04:36:09;;;;;;;10.63;6.47;;;25.80;84.30;;;;;;1875886;76;21471;-61
2022/07/11 04:38:38;;;;;;;14.03;6.30;;;25.80;84.10;;;;;;1875878;76;21119;-61
2022/07/11 04:41:08;;;;;;;13.35;5.83;;;25.80;84.00;;;;;;1875798;76;21128;-61
2022/07/11 04:43:38;;;;;;;8.83;5.28;;;25.80;84.00;;;;;;1877541;76;21495;-61
2022/07/11 04:46:07;;;;;;;7.35;5.80;;;25.90;84.20;;;;;;1885340;76;21037;-61
2022/07/11 04:48:41;;;;;;;7.87;5.85;;;25.90;84.30;;;;;;1885404;75;21021;-61
2022/07/11 04:51:07;;;;;;;15.03;5.25;;;26.00;84.10;;;;;;1884849;76;21026;-61
2022/07/11 04:53:36;;;;;;;9.35;5.67;;;26.00;83.90;;;;;;1885205;76;21103;-61
2022/07/11 04:56:07;;;;;;;7.58;5.20;;;26.00;84.20;;;;;;1885187;76;21106;-61
2022/07/11 04:58:36;;;;;;;5.92;5.33;;;26.10;84.10;;;;;;1885401;76;21095;-61
2022/07/11 05:01:06;;;;;;;6.08;5.17;;;26.20;83.80;;;;;;1885222;76;21034;-61
2022/07/11 05:03:36;;;;;;;6.55;5.15;;;26.20;82.90;;;;;;1885253;76;21021;-61
2022/07/11 05:06:06;;;;;;;7.67;5.20;;;26.20;82.60;;;;;;1885302;76;21037;-61
2022/07/11 05:08:36;;;;;;;11.63;4.65;;;26.20;82.40;;;;;;1885159;76;21095;-61
2022/07/11 05:11:06;;;;;;;5.33;4.85;;;26.30;82.00;;;;;;1885137;76;21034;-61
2022/07/11 05:13:36;;;;;;;14.35;5.30;;;26.30;81.60;;;;;;1885203;76;21033;-61
2022/07/11 05:16:07;;;;;;;7.87;5.10;;;26.40;81.50;;;;;;1885360;76;21037;-61
2022/07/11 05:18:37;;;;;;;5.50;4.50;;;26.40;80.50;;;;;;1885324;76;21025;-61
2022/07/11 05:21:06;;;;;;;9.38;4.85;;;26.40;79.80;;;;;;1885148;75;21095;-61
2022/07/11 05:23:36;;;;;;;10.35;4.30;;;26.40;79.40;;;;;;1885183;76;21108;-61
2022/07/11 05:26:07;;;;;;;9.75;4.55;;;26.40;78.90;;;;;;1885160;75;21057;-61
2022/07/11 05:28:36;;;;;;;8.68;4.72;;;26.40;78.70;;;;;;1885411;76;21033;-61
2022/07/11 05:31:05;;;;;;;11.35;6.15;;;26.40;78.20;;;;;;1885197;76;21464;-61
2022/07/11 05:33:35;;;;;;;10.60;5.28;;;26.40;78.20;;;;;;1885111;76;21041;-61
2022/07/11 05:36:04;;;;;;;7.80;6.08;;;26.50;78.30;;;;;;1885272;76;21122;-61
2022/07/11 05:38:34;;;;;;;9.65;4.62;;;26.50;78.70;;;;;;1885254;75;21014;-61
2022/07/11 05:41:03;;;;;;;8.65;5.40;;;26.60;78.70;;;;;;1885157;76;21033;-61
2022/07/11 05:43:33;;;;;;;15.15;7.90;;;26.70;78.90;;;;;;1885221;76;21084;-61
2022/07/11 05:46:06;;;;;;;10.25;5.25;;;26.90;78.90;;;;;;1876641;76;21061;-61
2022/07/11 05:48:36;;;;;;;6.47;4.97;;;26.90;77.90;;;;;;1875858;76;21069;-62
2022/07/11 05:51:06;;;;;;;5.75;4.80;;;27.00;77.60;;;;;;1875758;76;21074;-61
2022/07/11 05:53:35;;;;;;;9.18;4.80;;;26.90;77.60;;;;;;1875641;76;21030;-61
2022/07/11 05:56:06;;;;;;;7.25;5.03;;;26.80;77.50;;;;;;1875624;76;21053;-62
2022/07/11 05:58:35;;;;;;;8.03;4.40;;;26.70;78.10;;;;;;1875710;76;21193;-61
2022/07/11 06:01:05;;;;;;;11.43;5.33;;;26.70;78.10;;;;;;1875651;76;21014;-62
2022/07/11 06:03:35;;;;;;;8.93;5.28;;;26.70;77.50;;;;;;1875696;76;21119;-62
2022/07/11 06:06:06;;;;;;;30.82;6.70;;;26.60;77.10;;;;;;1875647;76;21096;-62
2022/07/11 06:08:41;;;;;;;7.12;4.87;;;26.50;77.40;;;;;;1875710;76;21057;-61
2022/07/11 06:11:13;;;;;;;7.40;5.55;;;26.40;77.40;;;;;;1875577;76;21100;-62
2022/07/11 06:16:23;;;;;;;6.55;4.65;;;26.20;77.50;;;;;;1910770;74;21503;-62
2022/07/11 06:18:52;;;;;;;8.55;5.05;;;26.10;77.60;;;;;;1911094;74;21039;-61
2022/07/11 06:21:21;;;;;;;8.78;5.83;;;26.10;77.90;;;;;;1911177;74;21175;-61
2022/07/11 06:23:51;;;;;;;8.40;5.40;;;26.10;77.90;;;;;;1911357;74;21440;-61
2022/07/11 06:26:21;;;;;;;12.05;5.22;;;26.10;78.10;;;;;;1911266;74;21009;-61
2022/07/11 06:28:50;;;;;;;9.15;4.45;;;26.20;78.00;;;;;;1911253;75;21064;-61
2022/07/11 06:31:19;;;;;;;9.55;5.15;;;26.30;77.60;;;;;;1911202;74;21021;-61
2022/07/11 06:33:54;;;;;;;8.93;4.55;;;26.50;76.40;;;;;;1911296;74;21075;-61
2022/07/11 06:36:21;;;;;;;16.40;5.05;;;26.60;76.00;;;;;;1911950;73;21072;-61
2022/07/11 06:38:51;;;;;;;11.43;5.03;;;26.70;75.80;;;;;;1911531;75;21009;-62
2022/07/11 06:41:21;;;;;;;13.15;5.72;;;26.80;75.20;;;;;;1911273;75;20998;-61
2022/07/11 06:43:51;;;;;;;14.38;6.87;;;26.90;75.00;;;;;;1911416;75;21006;-62
2022/07/11 06:46:20;;;;;;;23.92;5.28;;;27.00;75.40;;;;;;1911303;74;20986;-61
2022/07/11 06:48:50;;;;;;;11.28;4.10;;;27.20;75.10;;;;;;1911336;74;20986;-61
2022/07/11 06:51:21;;;;;;;15.65;4.85;;;27.30;73.30;;;;;;1911231;74;21006;-62
2022/07/11 06:53:52;;;;;;;7.33;4.00;;;27.40;72.80;;;;;;1911197;74;21006;-62
2022/07/11 06:56:21;;;;;;;15.23;5.20;;;27.40;72.60;;;;;;1911323;75;21006;-62
2022/07/11 06:58:51;;;;;;;14.07;3.75;;;27.50;72.60;;;;;;1911238;75;21002;-62
2022/07/11 07:01:20;;;;;;;9.75;4.22;;;27.60;72.30;;;;;;1911330;74;21067;-62
2022/07/11 07:03:49;;;;;;;11.53;5.00;;;27.70;72.20;;;;;;1911270;74;21053;-62
2022/07/11 07:06:19;;;;;;;5.10;3.58;;;27.80;71.70;;;;;;1911304;75;21072;-61
2022/07/11 07:08:48;;;;;;;10.95;3.92;;;27.90;71.40;;;;;;1911377;75;21072;-62
2022/07/11 07:11:19;;;;;;;3.52;3.10;;;28.00;71.00;;;;;;1911336;74;21009;-61
2022/07/11 07:13:50;;;;;;;7.67;4.12;;;28.10;70.30;;;;;;1911338;74;21014;-62
2022/07/11 07:16:19;;;;;;;4.30;3.55;;;28.20;70.00;;;;;;1922703;73;21612;-61
2022/07/11 07:18:50;;;;;;;23.00;5.10;;;28.30;69.90;;;;;;1927204;74;21067;-61
2022/07/11 07:21:20;;;;;;;9.85;3.83;;;28.30;68.80;;;;;;1927429;73;21381;-61
2022/07/11 07:23:49;;;;;;;7.03;3.67;;;28.30;68.20;;;;;;1927251;74;21017;-61
2022/07/11 07:26:19;;;;;;;6.55;3.40;;;28.30;68.60;;;;;;1927250;74;21475;-61
2022/07/11 07:28:48;;;;;;;6.95;3.62;;;28.40;68.40;;;;;;1927209;74;21002;-61
2022/07/11 07:31:18;;;;;;;5.47;3.65;;;28.40;68.60;;;;;;1927402;74;20978;-61
2022/07/11 07:33:47;;;;;;;8.48;3.37;;;28.50;68.50;;;;;;1927541;74;21079;-61
2022/07/11 07:36:17;;;;;;;9.23;3.60;;;28.50;68.20;;;;;;1927418;74;21059;-61
2022/07/11 07:38:47;;;;;;;5.70;3.77;;;28.40;67.30;;;;;;1927232;74;20997;-61
2022/07/11 07:41:17;;;;;;;6.03;3.35;;;28.50;66.90;;;;;;1927330;74;20993;-61
2022/07/11 07:43:48;;;;;;;5.35;3.72;;;28.60;67.60;;;;;;1927279;74;21075;-61
2022/07/11 07:46:17;;;;;;;82.72;47.53;;;28.60;66.90;;;;;;1927335;74;20993;-61
2022/07/11 07:48:46;;;;;;;4.75;3.25;;;28.70;66.50;;;;;;1927253;73;21063;-61
2022/07/11 07:51:16;;;;;;;6.25;3.35;;;28.80;66.10;;;;;;1927193;74;20997;-62
2022/07/11 07:53:45;;;;;;;5.83;3.62;;;28.90;66.00;;;;;;1927203;74;21056;-61
2022/07/11 07:56:15;;;;;;;10.00;4.58;;;28.80;65.50;;;;;;1927217;73;21005;-61
2022/07/11 07:58:44;;;;;;;4.85;3.22;;;28.80;65.90;;;;;;1927213;74;21009;-61
2022/07/11 08:04:01;;;;;;;9.63;3.40;;;28.80;66.50;;;;;;1925789;74;21036;-61
2022/07/11 08:06:30;;;;;;;14.45;2.95;;;28.80;66.90;;;;;;1926509;74;21017;-63
2022/07/11 08:09:00;;;;;;;5.62;3.22;;;28.90;65.80;;;;;;1926478;74;21094;-59
2022/07/11 08:11:30;;;;;;;10.60;3.80;;;28.80;65.90;;;;;;1926491;74;21036;-60
2022/07/11 08:13:59;;;;;;;7.08;3.20;;;28.90;65.80;;;;;;1926450;73;20973;-61
2022/07/11 08:16:29;;;;;;;4.10;3.42;;;28.90;64.80;;;;;;1926573;74;21080;-58
2022/07/11 08:19:01;;;;;;;7.90;3.30;;;28.90;64.80;;;;;;1926584;74;21024;-58
2022/07/11 08:21:31;;;;;;;7.30;3.80;;;28.90;64.50;;;;;;1926390;74;21014;-63
2022/07/11 08:24:01;;;;;;;7.53;3.67;;;29.00;64.80;;;;;;1926495;74;21067;-61
2022/07/11 08:26:30;;;;;;;4.83;3.52;;;29.10;64.90;;;;;;1926456;74;20997;-61
2022/07/11 08:29:00;;;;;;;3.83;3.33;;;29.20;64.00;;;;;;1921615;74;21051;-64
2022/07/11 08:31:29;;;;;;;6.75;3.08;;;29.20;63.70;;;;;;1913171;75;21558;-62
2022/07/11 08:33:59;;;;;;;6.22;3.27;;;29.20;63.40;;;;;;1913026;75;21165;-61
2022/07/11 08:36:34;;;;;;;10.13;3.80;;;29.30;62.90;;;;;;1913187;75;21047;-64
2022/07/11 08:39:02;;;;;;;14.03;4.40;;;29.30;62.90;;;;;;1913068;75;21087;-62
2022/07/11 08:41:32;;;;;;;8.08;3.65;;;29.30;62.50;;;;;;1913217;75;21051;-62
2022/07/11 08:44:02;;;;;;;14.63;3.75;;;29.30;62.40;;;;;;1912905;75;21051;-63
2022/07/11 08:46:31;;;;;;;10.35;3.85;;;29.40;62.50;;;;;;1912962;75;21125;-63
2022/07/11 08:49:03;;;;;;;7.78;3.58;;;29.40;62.50;;;;;;1913179;75;21103;-61
2022/07/11 08:51:32;;;;;;;4.55;3.12;;;29.60;62.20;;;;;;1913094;75;21091;-64
2022/07/11 08:54:02;;;;;;;8.75;2.90;;;29.60;61.70;;;;;;1913045;75;21055;-63
2022/07/11 08:56:32;;;;;;;4.60;3.35;;;29.70;61.20;;;;;;1913316;75;21051;-59
2022/07/11 08:59:02;;;;;;;4.80;3.00;;;29.70;60.40;;;;;;1913101;75;21008;-61
2022/07/11 09:01:37;;;;;;;4.08;2.85;;;29.80;60.90;;;;;;1913119;75;21028;-65
2022/07/11 09:04:08;;;;;;;6.00;3.50;;;29.80;60.70;;;;;;1912915;75;21027;-60
2022/07/11 09:06:38;;;;;;;4.92;3.90;;;29.90;60.80;;;;;;1913091;75;21098;-60
2022/07/11 09:09:07;;;;;;;4.75;3.58;;;29.80;60.50;;;;;;1912992;75;21023;-60
2022/07/11 09:11:58;;;;;;;4.45;2.80;;;29.90;60.60;;;;;;1913143;75;21075;-62
2022/07/11 09:14:32;;;;;;;8.48;3.17;;;29.90;60.60;;;;;;1913006;75;21105;-63
2022/07/11 09:17:06;;;;;;;5.60;3.45;;;30.00;60.60;;;;;;1905756;75;21056;-61
2022/07/11 09:19:39;;;;;;;4.40;2.90;;;30.10;60.40;;;;;;1897474;75;21506;-60
2022/07/11 09:27:56;;;;;;;6.08;3.10;;;30.10;60.20;;;;;;1897419;75;21036;-66
2022/07/11 09:30:35;;;;;;;5.60;2.92;;;30.10;60.30;;;;;;1897339;75;21114;-67
2022/07/11 09:33:06;;;;;;;6.05;3.37;;;30.20;60.50;;;;;;1897472;75;21052;-59
2022/07/11 09:35:37;;;;;;;5.50;3.22;;;30.30;60.60;;;;;;1896757;75;21064;-60
2022/07/11 09:38:08;;;;;;;6.75;3.10;;;30.40;60.50;;;;;;1897265;75;21072;-63
2022/07/11 09:40:39;;;;;;;8.15;3.85;;;30.40;59.80;;;;;;1897381;75;21040;-66
2022/07/11 09:43:08;;;;;;;4.42;3.15;;;30.40;59.70;;;;;;1897323;75;21157;-65
2022/07/11 09:45:37;;;;;;;5.97;4.22;;;30.30;59.80;;;;;;1897201;75;21076;-62
2022/07/11 09:48:14;;;;;;;5.97;2.98;;;30.20;59.90;;;;;;1897292;75;21068;-61
2022/07/11 09:51:04;;;;;;;9.63;3.90;;;30.20;59.90;;;;;;1897457;75;21004;-60
2022/07/11 09:53:33;;;;;;;8.18;3.30;;;30.20;60.00;;;;;;1880676;76;21125;-61
2022/07/11 09:56:02;;;;;;;7.62;4.92;;;30.20;59.60;;;;;;1880970;75;21024;-64
2022/07/11 09:58:32;;;;;;;5.15;3.17;;;30.10;59.60;;;;;;1881149;75;21032;-62
2022/07/11 10:01:01;;;;;;;4.83;3.22;;;30.20;60.30;;;;;;1880970;75;21028;-60
2022/07/11 10:03:31;;;;;;;4.92;3.33;;;30.30;60.30;;;;;;1880900;75;21172;-60
2022/07/11 10:06:00;;;;;;;5.03;3.22;;;30.20;59.90;;;;;;1881142;75;21060;-61
2022/07/11 10:08:33;;;;;;;5.37;3.20;;;30.30;60.30;;;;;;1880959;76;21087;-62
2022/07/11 10:11:01;;;;;;;10.10;3.20;;;30.30;60.00;;;;;;1881029;75;21019;-62
2022/07/11 10:13:30;;;;;;;11.95;4.75;;;30.30;60.00;;;;;;1881082;75;21000;-60
2022/07/11 10:16:02;;;;;;;7.70;3.60;;;30.40;59.70;;;;;;1881170;76;21089;-60
2022/07/11 10:18:38;;;;;;;6.55;3.67;;;30.40;59.90;;;;;;1881134;76;21105;-58
2022/07/11 10:21:12;;;;;;;7.00;3.70;;;30.40;59.70;;;;;;1877090;75;21074;-59
2022/07/11 10:23:50;;;;;;;4.85;3.02;;;30.40;59.60;;;;;;1876652;76;21565;-63
2022/07/11 10:26:43;;;;;;;6.15;3.50;;;30.40;59.80;;;;;;1837954;75;21110;-65
2022/07/11 10:29:27;;;;;;;7.45;4.22;;;30.40;59.40;;;;;;1880971;76;21048;-65
2022/07/11 10:32:13;;;;;;;11.30;4.45;;;30.30;58.80;;;;;;1836638;75;21157;-61
2022/07/11 10:34:42;;;;;;;4.30;3.05;;;30.30;59.00;;;;;;1881047;75;21031;-65
2022/07/11 10:37:16;;;;;;;8.15;3.35;;;30.30;59.80;;;;;;1881071;76;21056;-63
2022/07/11 10:39:46;;;;;;;21.30;4.95;;;30.30;59.40;;;;;;1880465;75;21203;-64
2022/07/11 10:42:22;;;;;;;6.08;3.85;;;30.30;58.90;;;;;;1877995;75;21063;-59
2022/07/11 10:44:54;;;;;;;3.92;3.05;;;30.40;59.10;;;;;;1880929;75;21032;-60
2022/07/11 10:47:43;;;;;;;5.42;3.37;;;30.40;58.70;;;;;;1880495;75;21028;-60
2022/07/11 10:50:24;;;;;;;7.65;3.50;;;30.40;58.30;;;;;;1881152;75;21028;-60
2022/07/11 10:52:56;;;;;;;5.83;3.75;;;30.40;59.00;;;;;;1884251;75;21113;-60
2022/07/11 10:58:29;;;;;;;5.83;3.65;;;30.40;58.70;;;;;;1921251;74;21120;-62
2022/07/11 11:01:15;;;;;;;4.50;3.60;;;30.30;58.60;;;;;;1930819;74;21647;-60
2022/07/11 11:03:45;;;;;;;6.00;3.60;;;30.30;58.70;;;;;;1908360;75;21046;-63
2022/07/11 11:06:20;;;;;;;15.00;3.85;;;30.30;58.00;;;;;;1943955;74;21041;-66
2022/07/11 11:08:47;;;;;;;8.68;3.70;;;30.40;58.50;;;;;;1943255;72;21111;-61
2022/07/11 11:11:25;;;;;;;7.08;3.42;;;30.30;58.30;;;;;;1943954;74;21103;-64
2022/07/11 11:14:19;;;;;;;16.73;4.20;;;30.30;58.70;;;;;;1943739;73;21106;-62
2022/07/11 11:16:50;;;;;;;5.33;3.40;;;30.40;58.90;;;;;;1944228;74;21026;-64
2022/07/11 11:19:50;;;;;;;7.45;3.52;;;30.50;58.80;;;;;;1943723;73;21095;-63
2022/07/11 11:22:21;;;;;;;6.80;3.40;;;30.50;58.50;;;;;;1943726;74;21016;-60
2022/07/11 11:24:53;;;;;;;6.28;4.25;;;30.60;58.30;;;;;;1944010;74;21060;-60
2022/07/11 11:27:24;;;;;;;7.35;3.72;;;30.50;57.90;;;;;;1943812;74;21038;-63
2022/07/11 11:29:55;;;;;;;10.48;3.37;;;30.50;58.60;;;;;;1943666;72;21078;-63
2022/07/11 11:32:32;;;;;;;9.38;4.33;;;30.50;58.90;;;;;;1943873;74;21103;-61
2022/07/11 11:35:01;;;;;;;8.85;3.52;;;30.50;59.00;;;;;;1943681;72;21056;-63
2022/07/11 11:37:31;;;;;;;7.60;3.17;;;30.60;58.90;;;;;;1943570;74;21053;-63
2022/07/11 11:40:00;;;;;;;3.87;3.35;;;30.70;58.80;;;;;;1943769;72;21043;-61
2022/07/11 11:42:30;;;;;;;5.15;3.15;;;30.70;58.00;;;;;;1943742;74;21116;-64
2022/07/11 11:45:07;;;;;;;6.90;3.62;;;30.60;58.30;;;;;;1943753;74;20985;-61
2022/07/11 11:47:37;;;;;;;5.60;3.05;;;30.60;58.60;;;;;;1943950;74;21025;-61
2022/07/11 11:50:09;;;;;;;4.17;2.90;;;30.60;58.80;;;;;;1943963;73;21162;-61
2022/07/11 11:52:39;;;;;;;6.58;3.37;;;30.60;59.00;;;;;;1943842;74;21010;-63
2022/07/11 11:55:11;;;;;;;8.60;3.50;;;30.70;58.70;;;;;;1943809;73;21017;-62
2022/07/11 11:57:41;;;;;;;9.13;3.70;;;30.70;58.70;;;;;;1932878;73;21570;-63
2022/07/11 12:00:31;;;;;;;5.92;3.50;;;30.70;58.60;;;;;;1905025;75;21104;-63
2022/07/11 12:02:59;;;;;;;16.15;4.10;;;30.70;59.30;;;;;;1905059;75;21057;-61
2022/07/11 12:05:28;;;;;;;3.95;3.30;;;30.70;58.90;;;;;;1904988;74;21127;-64
2022/07/11 12:07:58;;;;;;;5.95;3.42;;;30.70;59.00;;;;;;1904996;75;21010;-61
2022/07/11 12:10:28;;;;;;;11.73;3.45;;;30.70;59.00;;;;;;1905036;75;21077;-62
2022/07/11 12:12:58;;;;;;;8.43;4.08;;;30.70;59.00;;;;;;1905141;74;21021;-63
2022/07/11 12:15:34;;;;;;;9.65;3.90;;;30.60;59.00;;;;;;1904971;75;21085;-66
2022/07/11 12:18:04;;;;;;;8.23;3.60;;;30.60;59.30;;;;;;1905006;75;21026;-62
2022/07/11 12:20:42;;;;;;;8.18;3.75;;;30.60;59.70;;;;;;1904911;75;21049;-64
2022/07/11 12:23:14;;;;;;;5.25;3.47;;;30.60;59.40;;;;;;1904897;75;21568;-63
2022/07/11 12:25:43;;;;;;;4.70;3.30;;;30.60;59.20;;;;;;1905150;75;21018;-66
2022/07/11 12:28:14;;;;;;;7.78;3.37;;;30.50;59.20;;;;;;1904764;75;21113;-63
2022/07/11 12:30:44;;;;;;;9.70;4.08;;;30.50;59.70;;;;;;1905001;74;21049;-62
2022/07/11 12:33:15;;;;;;;8.70;3.62;;;30.40;59.80;;;;;;1904979;75;21151;-60
2022/07/11 12:36:01;;;;;;;10.78;4.30;;;30.50;60.20;;;;;;1905574;75;21018;-61
2022/07/11 12:38:53;;;;;;;5.35;4.30;;;30.50;60.20;;;;;;1905743;74;21093;-62
2022/07/11 12:41:19;;;;;;;4.00;3.00;;;30.60;59.80;;;;;;1849556;74;21472;-61
2022/07/11 12:46:39;;;;;;;4.08;2.80;;;30.60;59.80;;;;;;1905804;75;21091;-60
2022/07/11 12:49:11;;;;;;;4.50;3.10;;;30.60;60.00;;;;;;1905602;74;21010;-60
2022/07/11 12:51:42;;;;;;;8.08;3.47;;;30.60;60.20;;;;;;1905633;75;21022;-60
2022/07/11 12:54:13;;;;;;;5.87;3.30;;;30.60;60.30;;;;;;1905465;75;21069;-60
2022/07/11 12:57:01;;;;;;;8.00;5.30;;;30.60;60.20;;;;;;1905562;75;21014;-60
2022/07/11 12:59:32;;;;;;;10.88;4.55;;;30.60;59.80;;;;;;1905409;74;21034;-60
2022/07/11 13:02:06;;;;;;;4.67;3.45;;;30.60;59.80;;;;;;1905564;74;21061;-61
2022/07/11 13:04:50;;;;;;;5.47;3.40;;;30.60;59.70;;;;;;1904770;74;21497;-60
2022/07/11 13:10:19;;;;;;;3.65;3.00;;;30.60;59.80;;;;;;1905505;75;21026;-60
2022/07/11 13:12:50;;;;;;;4.67;3.62;;;30.50;60.30;;;;;;1905599;75;21538;-60
2022/07/11 13:15:20;;;;;;;7.20;4.00;;;30.50;59.90;;;;;;1905506;75;21022;-60
2022/07/11 13:17:51;;;;;;;5.83;3.35;;;30.50;60.10;;;;;;1905669;74;21424;-60
2022/07/11 13:20:24;;;;;;;9.18;3.90;;;30.60;60.20;;;;;;1905501;75;21072;-60
2022/07/11 13:22:54;;;;;;;13.38;4.92;;;30.50;60.30;;;;;;1885810;75;21006;-61
2022/07/11 13:25:25;;;;;;;4.40;3.55;;;30.50;60.40;;;;;;1905679;75;21006;-62